sensor_id;sensor_type;location;lat;lon;timestamp;P1;durP1;ratioP1;P2;durP2;ratioP2
61702;SDS011;47622;47.726;3.298;2023-04-25T00:01:15;4.30;;;3.03;;
61702;SDS011;47622;47.726;3.298;2023-04-25T00:03:40;7.32;;;2.90;;
61702;SDS011;47622;47.726;3.298;2023-04-25T00:06:06;4.90;;;2.90;;
61702;SDS011;47622;47.726;3.298;2023-04-25T00:08:32;4.57;;;3.10;;
61702;SDS011;47622;47.726;3.298;2023-04-25T00:10:58;4.03;;;2.70;;
61702;SDS011;47622;47.726;3.298;2023-04-25T00:13:25;4.30;;;2.65;;
61702;SDS011;47622;47.726;3.298;2023-04-25T00:15:52;3.90;;;2.58;;
61702;SDS011;47622;47.726;3.298;2023-04-25T00:18:25;6.00;;;2.70;;
61702;SDS011;47622;47.726;3.298;2023-04-25T00:20:54;3.83;;;3.28;;
61702;SDS011;47622;47.726;3.298;2023-04-25T00:23:20;4.40;;;2.53;;
61702;SDS011;47622;47.726;3.298;2023-04-25T00:25:46;5.03;;;2.53;;
61702;SDS011;47622;47.726;3.298;2023-04-25T00:28:13;2.70;;;2.50;;
61702;SDS011;47622;47.726;3.298;2023-04-25T00:30:38;7.40;;;2.67;;
61702;SDS011;47622;47.726;3.298;2023-04-25T00:33:05;3.58;;;2.55;;
61702;SDS011;47622;47.726;3.298;2023-04-25T00:35:31;5.00;;;2.95;;
61702;SDS011;47622;47.726;3.298;2023-04-25T00:37:57;6.97;;;2.70;;
61702;SDS011;47622;47.726;3.298;2023-04-25T00:40:22;6.35;;;2.70;;
61702;SDS011;47622;47.726;3.298;2023-04-25T00:42:48;4.57;;;2.38;;
61702;SDS011;47622;47.726;3.298;2023-04-25T00:45:16;4.28;;;2.50;;
61702;SDS011;47622;47.726;3.298;2023-04-25T00:47:44;4.57;;;2.72;;
61702;SDS011;47622;47.726;3.298;2023-04-25T00:50:10;4.47;;;2.72;;
61702;SDS011;47622;47.726;3.298;2023-04-25T00:52:40;3.63;;;2.22;;
61702;SDS011;47622;47.726;3.298;2023-04-25T00:55:08;3.55;;;2.85;;
61702;SDS011;47622;47.726;3.298;2023-04-25T00:57:35;3.05;;;2.55;;
61702;SDS011;47622;47.726;3.298;2023-04-25T01:00:02;4.93;;;2.83;;
61702;SDS011;47622;47.726;3.298;2023-04-25T01:02:30;7.30;;;2.75;;
61702;SDS011;47622;47.726;3.298;2023-04-25T01:04:58;5.45;;;2.53;;
61702;SDS011;47622;47.726;3.298;2023-04-25T01:07:24;6.18;;;2.42;;
61702;SDS011;47622;47.726;3.298;2023-04-25T01:09:54;4.90;;;2.40;;
61702;SDS011;47622;47.726;3.298;2023-04-25T01:12:20;3.65;;;2.58;;
61702;SDS011;47622;47.726;3.298;2023-04-25T01:14:46;3.97;;;2.38;;
61702;SDS011;47622;47.726;3.298;2023-04-25T01:17:12;5.00;;;2.30;;
61702;SDS011;47622;47.726;3.298;2023-04-25T01:19:38;4.80;;;2.55;;
61702;SDS011;47622;47.726;3.298;2023-04-25T01:22:04;3.55;;;2.47;;
61702;SDS011;47622;47.726;3.298;2023-04-25T01:24:33;4.43;;;2.40;;
61702;SDS011;47622;47.726;3.298;2023-04-25T01:26:59;5.00;;;2.13;;
61702;SDS011;47622;47.726;3.298;2023-04-25T01:29:26;2.72;;;2.30;;
61702;SDS011;47622;47.726;3.298;2023-04-25T01:31:52;4.07;;;2.42;;
61702;SDS011;47622;47.726;3.298;2023-04-25T01:34:18;4.82;;;2.30;;
61702;SDS011;47622;47.726;3.298;2023-04-25T01:36:44;3.75;;;2.30;;
61702;SDS011;47622;47.726;3.298;2023-04-25T01:39:10;3.13;;;2.42;;
61702;SDS011;47622;47.726;3.298;2023-04-25T01:41:36;3.70;;;2.30;;
61702;SDS011;47622;47.726;3.298;2023-04-25T01:44:02;3.88;;;2.22;;
61702;SDS011;47622;47.726;3.298;2023-04-25T01:46:28;6.40;;;2.20;;
61702;SDS011;47622;47.726;3.298;2023-04-25T01:48:54;3.78;;;2.10;;
61702;SDS011;47622;47.726;3.298;2023-04-25T01:51:20;8.25;;;2.60;;
61702;SDS011;47622;47.726;3.298;2023-04-25T01:53:47;6.53;;;2.63;;
61702;SDS011;47622;47.726;3.298;2023-04-25T01:56:13;4.45;;;2.65;;
61702;SDS011;47622;47.726;3.298;2023-04-25T01:58:40;4.53;;;2.28;;
61702;SDS011;47622;47.726;3.298;2023-04-25T02:01:05;3.40;;;2.55;;
61702;SDS011;47622;47.726;3.298;2023-04-25T02:03:31;4.13;;;2.65;;
61702;SDS011;47622;47.726;3.298;2023-04-25T02:05:57;5.65;;;3.35;;
61702;SDS011;47622;47.726;3.298;2023-04-25T02:08:23;4.43;;;3.05;;
61702;SDS011;47622;47.726;3.298;2023-04-25T02:10:51;6.20;;;3.40;;
61702;SDS011;47622;47.726;3.298;2023-04-25T02:13:17;5.80;;;2.83;;
61702;SDS011;47622;47.726;3.298;2023-04-25T02:15:43;3.95;;;2.88;;
61702;SDS011;47622;47.726;3.298;2023-04-25T02:18:08;5.82;;;3.53;;
61702;SDS011;47622;47.726;3.298;2023-04-25T02:20:35;5.50;;;3.58;;
61702;SDS011;47622;47.726;3.298;2023-04-25T02:23:01;7.60;;;3.63;;
61702;SDS011;47622;47.726;3.298;2023-04-25T02:25:27;4.38;;;3.40;;
61702;SDS011;47622;47.726;3.298;2023-04-25T02:27:53;6.40;;;3.38;;
61702;SDS011;47622;47.726;3.298;2023-04-25T02:30:19;4.20;;;3.15;;
61702;SDS011;47622;47.726;3.298;2023-04-25T02:32:45;4.25;;;3.35;;
61702;SDS011;47622;47.726;3.298;2023-04-25T02:35:11;4.32;;;3.03;;
61702;SDS011;47622;47.726;3.298;2023-04-25T02:37:37;5.07;;;2.92;;
61702;SDS011;47622;47.726;3.298;2023-04-25T02:40:05;4.93;;;3.55;;
61702;SDS011;47622;47.726;3.298;2023-04-25T02:42:31;5.18;;;4.10;;
61702;SDS011;47622;47.726;3.298;2023-04-25T02:44:57;6.90;;;3.47;;
61702;SDS011;47622;47.726;3.298;2023-04-25T02:47:23;4.47;;;3.40;;
61702;SDS011;47622;47.726;3.298;2023-04-25T02:49:49;4.80;;;3.10;;
61702;SDS011;47622;47.726;3.298;2023-04-25T02:52:15;5.82;;;3.60;;
61702;SDS011;47622;47.726;3.298;2023-04-25T02:54:41;6.53;;;4.07;;
61702;SDS011;47622;47.726;3.298;2023-04-25T02:57:06;7.15;;;3.00;;
61702;SDS011;47622;47.726;3.298;2023-04-25T02:59:33;6.40;;;3.72;;
61702;SDS011;47622;47.726;3.298;2023-04-25T03:01:59;4.47;;;3.70;;
61702;SDS011;47622;47.726;3.298;2023-04-25T03:04:25;5.15;;;3.50;;
61702;SDS011;47622;47.726;3.298;2023-04-25T03:06:51;6.28;;;3.63;;
61702;SDS011;47622;47.726;3.298;2023-04-25T03:09:18;7.88;;;3.80;;
61702;SDS011;47622;47.726;3.298;2023-04-25T03:11:44;11.18;;;3.70;;
61702;SDS011;47622;47.726;3.298;2023-04-25T03:14:10;8.13;;;3.72;;
61702;SDS011;47622;47.726;3.298;2023-04-25T03:16:36;6.30;;;3.47;;
61702;SDS011;47622;47.726;3.298;2023-04-25T03:19:02;8.27;;;3.38;;
61702;SDS011;47622;47.726;3.298;2023-04-25T03:21:28;6.68;;;3.40;;
61702;SDS011;47622;47.726;3.298;2023-04-25T03:23:56;5.68;;;3.33;;
61702;SDS011;47622;47.726;3.298;2023-04-25T03:26:22;7.05;;;3.45;;
61702;SDS011;47622;47.726;3.298;2023-04-25T03:28:48;5.40;;;3.70;;
61702;SDS011;47622;47.726;3.298;2023-04-25T03:31:14;10.52;;;3.63;;
61702;SDS011;47622;47.726;3.298;2023-04-25T03:33:39;7.15;;;3.58;;
61702;SDS011;47622;47.726;3.298;2023-04-25T03:36:05;4.90;;;3.60;;
61702;SDS011;47622;47.726;3.298;2023-04-25T03:38:31;6.75;;;3.90;;
61702;SDS011;47622;47.726;3.298;2023-04-25T03:40:57;9.93;;;3.75;;
61702;SDS011;47622;47.726;3.298;2023-04-25T03:43:23;8.00;;;4.18;;
61702;SDS011;47622;47.726;3.298;2023-04-25T03:45:49;8.13;;;4.75;;
61702;SDS011;47622;47.726;3.298;2023-04-25T03:48:15;8.35;;;3.90;;
61702;SDS011;47622;47.726;3.298;2023-04-25T03:50:40;8.18;;;4.10;;
61702;SDS011;47622;47.726;3.298;2023-04-25T03:53:06;10.52;;;4.55;;
61702;SDS011;47622;47.726;3.298;2023-04-25T03:55:31;10.52;;;4.20;;
61702;SDS011;47622;47.726;3.298;2023-04-25T03:57:57;6.75;;;3.97;;
61702;SDS011;47622;47.726;3.298;2023-04-25T04:00:24;5.30;;;3.78;;
61702;SDS011;47622;47.726;3.298;2023-04-25T04:02:50;8.32;;;4.43;;
61702;SDS011;47622;47.726;3.298;2023-04-25T04:05:15;12.18;;;4.55;;
61702;SDS011;47622;47.726;3.298;2023-04-25T04:07:41;10.10;;;4.60;;
61702;SDS011;47622;47.726;3.298;2023-04-25T04:10:09;8.90;;;4.43;;
61702;SDS011;47622;47.726;3.298;2023-04-25T04:12:35;7.40;;;4.88;;
61702;SDS011;47622;47.726;3.298;2023-04-25T04:15:02;11.07;;;5.03;;
61702;SDS011;47622;47.726;3.298;2023-04-25T04:17:28;7.35;;;4.78;;
61702;SDS011;47622;47.726;3.298;2023-04-25T04:19:55;7.78;;;4.70;;
61702;SDS011;47622;47.726;3.298;2023-04-25T04:22:21;8.50;;;4.75;;
61702;SDS011;47622;47.726;3.298;2023-04-25T04:24:47;8.48;;;4.53;;
61702;SDS011;47622;47.726;3.298;2023-04-25T04:27:13;12.93;;;5.57;;
61702;SDS011;47622;47.726;3.298;2023-04-25T04:29:40;9.77;;;5.00;;
61702;SDS011;47622;47.726;3.298;2023-04-25T04:32:06;10.40;;;4.60;;
61702;SDS011;47622;47.726;3.298;2023-04-25T04:34:33;10.75;;;5.75;;
61702;SDS011;47622;47.726;3.298;2023-04-25T04:37:00;12.52;;;5.10;;
61702;SDS011;47622;47.726;3.298;2023-04-25T04:39:27;10.75;;;4.97;;
61702;SDS011;47622;47.726;3.298;2023-04-25T04:41:53;11.05;;;5.97;;
61702;SDS011;47622;47.726;3.298;2023-04-25T04:44:19;11.32;;;5.43;;
61702;SDS011;47622;47.726;3.298;2023-04-25T04:46:45;8.30;;;5.53;;
61702;SDS011;47622;47.726;3.298;2023-04-25T04:49:11;15.82;;;5.72;;
61702;SDS011;47622;47.726;3.298;2023-04-25T04:51:39;10.82;;;5.53;;
61702;SDS011;47622;47.726;3.298;2023-04-25T04:54:05;12.32;;;5.50;;
61702;SDS011;47622;47.726;3.298;2023-04-25T04:56:31;15.27;;;5.07;;
61702;SDS011;47622;47.726;3.298;2023-04-25T04:58:58;10.07;;;5.35;;
61702;SDS011;47622;47.726;3.298;2023-04-25T05:01:25;12.65;;;5.40;;
61702;SDS011;47622;47.726;3.298;2023-04-25T05:03:51;16.45;;;5.80;;
61702;SDS011;47622;47.726;3.298;2023-04-25T05:06:20;14.75;;;5.38;;
61702;SDS011;47622;47.726;3.298;2023-04-25T05:08:46;14.25;;;5.93;;
61702;SDS011;47622;47.726;3.298;2023-04-25T05:11:11;11.82;;;5.47;;
61702;SDS011;47622;47.726;3.298;2023-04-25T05:13:37;10.60;;;5.40;;
61702;SDS011;47622;47.726;3.298;2023-04-25T05:16:03;13.93;;;5.03;;
61702;SDS011;47622;47.726;3.298;2023-04-25T05:18:28;11.65;;;5.30;;
61702;SDS011;47622;47.726;3.298;2023-04-25T05:20:54;12.10;;;5.80;;
61702;SDS011;47622;47.726;3.298;2023-04-25T05:23:23;9.60;;;5.13;;
61702;SDS011;47622;47.726;3.298;2023-04-25T05:25:48;15.27;;;6.45;;
61702;SDS011;47622;47.726;3.298;2023-04-25T05:28:14;10.55;;;6.00;;
61702;SDS011;47622;47.726;3.298;2023-04-25T05:30:40;13.98;;;6.00;;
61702;SDS011;47622;47.726;3.298;2023-04-25T05:33:07;10.88;;;5.63;;
61702;SDS011;47622;47.726;3.298;2023-04-25T05:35:32;11.32;;;5.45;;
61702;SDS011;47622;47.726;3.298;2023-04-25T05:37:59;13.57;;;6.38;;
61702;SDS011;47622;47.726;3.298;2023-04-25T05:40:25;12.02;;;5.72;;
61702;SDS011;47622;47.726;3.298;2023-04-25T05:42:51;12.27;;;5.43;;
61702;SDS011;47622;47.726;3.298;2023-04-25T05:45:16;12.80;;;5.72;;
61702;SDS011;47622;47.726;3.298;2023-04-25T05:47:42;11.65;;;5.50;;
61702;SDS011;47622;47.726;3.298;2023-04-25T05:50:08;15.65;;;6.18;;
61702;SDS011;47622;47.726;3.298;2023-04-25T05:52:34;11.25;;;5.65;;
61702;SDS011;47622;47.726;3.298;2023-04-25T05:54:59;15.15;;;5.65;;
61702;SDS011;47622;47.726;3.298;2023-04-25T05:57:26;16.10;;;6.20;;
61702;SDS011;47622;47.726;3.298;2023-04-25T05:59:52;12.40;;;5.47;;
61702;SDS011;47622;47.726;3.298;2023-04-25T06:02:20;11.45;;;5.53;;
61702;SDS011;47622;47.726;3.298;2023-04-25T06:04:46;10.95;;;5.53;;
61702;SDS011;47622;47.726;3.298;2023-04-25T06:07:14;12.52;;;5.30;;
61702;SDS011;47622;47.726;3.298;2023-04-25T06:09:40;9.55;;;5.80;;
61702;SDS011;47622;47.726;3.298;2023-04-25T06:12:06;15.32;;;5.65;;
61702;SDS011;47622;47.726;3.298;2023-04-25T06:14:32;13.32;;;5.70;;
61702;SDS011;47622;47.726;3.298;2023-04-25T06:16:58;12.43;;;4.75;;
61702;SDS011;47622;47.726;3.298;2023-04-25T06:19:24;10.18;;;5.00;;
61702;SDS011;47622;47.726;3.298;2023-04-25T06:21:50;14.32;;;5.65;;
61702;SDS011;47622;47.726;3.298;2023-04-25T06:24:16;11.80;;;5.72;;
61702;SDS011;47622;47.726;3.298;2023-04-25T06:26:41;11.68;;;5.80;;
61702;SDS011;47622;47.726;3.298;2023-04-25T06:29:07;12.13;;;6.03;;
61702;SDS011;47622;47.726;3.298;2023-04-25T06:31:32;11.82;;;6.30;;
61702;SDS011;47622;47.726;3.298;2023-04-25T06:33:58;12.85;;;5.00;;
61702;SDS011;47622;47.726;3.298;2023-04-25T06:36:24;12.32;;;5.40;;
61702;SDS011;47622;47.726;3.298;2023-04-25T06:38:51;13.15;;;6.22;;
61702;SDS011;47622;47.726;3.298;2023-04-25T06:41:17;13.80;;;6.07;;
61702;SDS011;47622;47.726;3.298;2023-04-25T06:43:43;14.90;;;6.68;;
61702;SDS011;47622;47.726;3.298;2023-04-25T06:46:10;14.35;;;5.60;;
61702;SDS011;47622;47.726;3.298;2023-04-25T06:48:36;9.18;;;4.82;;
61702;SDS011;47622;47.726;3.298;2023-04-25T06:51:02;16.98;;;6.00;;
61702;SDS011;47622;47.726;3.298;2023-04-25T06:53:29;17.67;;;6.35;;
61702;SDS011;47622;47.726;3.298;2023-04-25T06:55:54;15.45;;;5.85;;
61702;SDS011;47622;47.726;3.298;2023-04-25T06:58:20;13.20;;;5.70;;
61702;SDS011;47622;47.726;3.298;2023-04-25T07:00:46;8.70;;;5.90;;
61702;SDS011;47622;47.726;3.298;2023-04-25T07:03:11;10.02;;;6.10;;
61702;SDS011;47622;47.726;3.298;2023-04-25T07:05:37;9.75;;;5.57;;
61702;SDS011;47622;47.726;3.298;2023-04-25T07:08:03;11.75;;;5.68;;
61702;SDS011;47622;47.726;3.298;2023-04-25T07:10:28;9.27;;;5.55;;
61702;SDS011;47622;47.726;3.298;2023-04-25T07:12:54;11.25;;;6.00;;
61702;SDS011;47622;47.726;3.298;2023-04-25T07:15:20;13.30;;;5.95;;
61702;SDS011;47622;47.726;3.298;2023-04-25T07:17:45;11.52;;;5.85;;
61702;SDS011;47622;47.726;3.298;2023-04-25T07:20:11;10.85;;;5.95;;
61702;SDS011;47622;47.726;3.298;2023-04-25T07:22:37;10.98;;;6.00;;
61702;SDS011;47622;47.726;3.298;2023-04-25T07:25:03;13.70;;;6.05;;
61702;SDS011;47622;47.726;3.298;2023-04-25T07:27:29;9.40;;;5.28;;
61702;SDS011;47622;47.726;3.298;2023-04-25T07:29:55;15.45;;;6.85;;
61702;SDS011;47622;47.726;3.298;2023-04-25T07:32:21;10.32;;;5.22;;
61702;SDS011;47622;47.726;3.298;2023-04-25T07:34:47;15.75;;;6.47;;
61702;SDS011;47622;47.726;3.298;2023-04-25T07:37:12;11.57;;;5.60;;
61702;SDS011;47622;47.726;3.298;2023-04-25T07:39:39;10.65;;;5.30;;
61702;SDS011;47622;47.726;3.298;2023-04-25T07:42:05;11.68;;;5.03;;
61702;SDS011;47622;47.726;3.298;2023-04-25T07:44:33;8.27;;;4.70;;
61702;SDS011;47622;47.726;3.298;2023-04-25T07:47:07;11.55;;;5.80;;
61702;SDS011;47622;47.726;3.298;2023-04-25T07:49:36;10.18;;;5.72;;
61702;SDS011;47622;47.726;3.298;2023-04-25T07:52:03;10.38;;;5.15;;
61702;SDS011;47622;47.726;3.298;2023-04-25T07:54:31;14.40;;;5.30;;
61702;SDS011;47622;47.726;3.298;2023-04-25T07:56:57;11.30;;;5.20;;
61702;SDS011;47622;47.726;3.298;2023-04-25T07:59:23;10.13;;;4.05;;
61702;SDS011;47622;47.726;3.298;2023-04-25T08:01:49;11.30;;;4.85;;
61702;SDS011;47622;47.726;3.298;2023-04-25T08:04:15;12.82;;;5.07;;
61702;SDS011;47622;47.726;3.298;2023-04-25T08:06:41;9.07;;;4.35;;
61702;SDS011;47622;47.726;3.298;2023-04-25T08:09:08;12.07;;;4.78;;
61702;SDS011;47622;47.726;3.298;2023-04-25T08:11:34;9.88;;;4.63;;
61702;SDS011;47622;47.726;3.298;2023-04-25T08:14:00;10.55;;;4.18;;
61702;SDS011;47622;47.726;3.298;2023-04-25T08:16:26;12.88;;;4.43;;
61702;SDS011;47622;47.726;3.298;2023-04-25T08:18:52;9.15;;;4.20;;
61702;SDS011;47622;47.726;3.298;2023-04-25T08:21:18;6.88;;;4.00;;
61702;SDS011;47622;47.726;3.298;2023-04-25T08:23:44;10.13;;;4.30;;
61702;SDS011;47622;47.726;3.298;2023-04-25T08:26:10;8.02;;;4.07;;
61702;SDS011;47622;47.726;3.298;2023-04-25T08:28:37;9.00;;;4.22;;
61702;SDS011;47622;47.726;3.298;2023-04-25T08:31:03;6.30;;;4.00;;
61702;SDS011;47622;47.726;3.298;2023-04-25T08:33:29;10.65;;;4.63;;
61702;SDS011;47622;47.726;3.298;2023-04-25T08:35:55;8.75;;;4.53;;
61702;SDS011;47622;47.726;3.298;2023-04-25T08:38:21;10.52;;;4.22;;
61702;SDS011;47622;47.726;3.298;2023-04-25T08:40:48;8.68;;;3.67;;
61702;SDS011;47622;47.726;3.298;2023-04-25T08:43:17;10.27;;;4.00;;
61702;SDS011;47622;47.726;3.298;2023-04-25T08:45:44;10.07;;;4.50;;
61702;SDS011;47622;47.726;3.298;2023-04-25T08:48:14;7.32;;;3.58;;
61702;SDS011;47622;47.726;3.298;2023-04-25T08:53:14;8.85;;;4.20;;
61702;SDS011;47622;47.726;3.298;2023-04-25T08:55:46;6.55;;;3.60;;
61702;SDS011;47622;47.726;3.298;2023-04-25T08:58:13;11.20;;;4.78;;
61702;SDS011;47622;47.726;3.298;2023-04-25T09:00:40;10.50;;;3.70;;
61702;SDS011;47622;47.726;3.298;2023-04-25T09:03:06;8.90;;;3.47;;
61702;SDS011;47622;47.726;3.298;2023-04-25T09:05:32;6.32;;;3.88;;
61702;SDS011;47622;47.726;3.298;2023-04-25T09:07:59;7.47;;;3.60;;
61702;SDS011;47622;47.726;3.298;2023-04-25T09:10:26;7.72;;;3.50;;
61702;SDS011;47622;47.726;3.298;2023-04-25T09:13:05;9.93;;;3.40;;
61702;SDS011;47622;47.726;3.298;2023-04-25T09:15:46;10.30;;;3.65;;
61702;SDS011;47622;47.726;3.298;2023-04-25T09:18:23;5.63;;;3.17;;
61702;SDS011;47622;47.726;3.298;2023-04-25T09:20:56;7.28;;;3.33;;
61702;SDS011;47622;47.726;3.298;2023-04-25T09:23:29;4.93;;;2.90;;
61702;SDS011;47622;47.726;3.298;2023-04-25T09:25:55;7.18;;;3.47;;
61702;SDS011;47622;47.726;3.298;2023-04-25T09:28:24;6.57;;;3.50;;
61702;SDS011;47622;47.726;3.298;2023-04-25T09:30:54;11.10;;;3.45;;
61702;SDS011;47622;47.726;3.298;2023-04-25T09:33:26;6.97;;;3.42;;
61702;SDS011;47622;47.726;3.298;2023-04-25T09:35:54;8.02;;;3.50;;
61702;SDS011;47622;47.726;3.298;2023-04-25T09:38:27;8.40;;;3.50;;
61702;SDS011;47622;47.726;3.298;2023-04-25T09:40:56;6.15;;;3.40;;
61702;SDS011;47622;47.726;3.298;2023-04-25T09:43:23;7.70;;;3.22;;
61702;SDS011;47622;47.726;3.298;2023-04-25T09:45:50;9.77;;;3.72;;
61702;SDS011;47622;47.726;3.298;2023-04-25T09:48:20;8.32;;;3.60;;
61702;SDS011;47622;47.726;3.298;2023-04-25T09:53:34;5.68;;;3.00;;
61702;SDS011;47622;47.726;3.298;2023-04-25T09:56:03;7.45;;;3.10;;
61702;SDS011;47622;47.726;3.298;2023-04-25T09:58:30;8.02;;;3.55;;
61702;SDS011;47622;47.726;3.298;2023-04-25T10:01:00;7.65;;;2.80;;
61702;SDS011;47622;47.726;3.298;2023-04-25T10:03:29;7.82;;;2.72;;
61702;SDS011;47622;47.726;3.298;2023-04-25T10:05:57;5.22;;;2.90;;
61702;SDS011;47622;47.726;3.298;2023-04-25T10:08:31;3.65;;;2.60;;
61702;SDS011;47622;47.726;3.298;2023-04-25T10:11:02;5.28;;;2.72;;
61702;SDS011;47622;47.726;3.298;2023-04-25T10:13:29;4.78;;;2.88;;
61702;SDS011;47622;47.726;3.298;2023-04-25T10:15:57;5.90;;;2.60;;
61702;SDS011;47622;47.726;3.298;2023-04-25T10:18:24;5.75;;;2.65;;
61702;SDS011;47622;47.726;3.298;2023-04-25T10:20:50;5.75;;;2.58;;
61702;SDS011;47622;47.726;3.298;2023-04-25T10:23:18;8.27;;;3.05;;
61702;SDS011;47622;47.726;3.298;2023-04-25T10:25:45;8.23;;;2.88;;
61702;SDS011;47622;47.726;3.298;2023-04-25T10:28:11;5.13;;;2.40;;
61702;SDS011;47622;47.726;3.298;2023-04-25T10:30:37;6.35;;;2.08;;
61702;SDS011;47622;47.726;3.298;2023-04-25T10:33:03;10.65;;;2.60;;
61702;SDS011;47622;47.726;3.298;2023-04-25T10:35:42;6.00;;;2.47;;
61702;SDS011;47622;47.726;3.298;2023-04-25T10:38:10;4.72;;;2.33;;
61702;SDS011;47622;47.726;3.298;2023-04-25T10:40:37;6.60;;;2.33;;
61702;SDS011;47622;47.726;3.298;2023-04-25T10:45:56;2.78;;;2.08;;
61702;SDS011;47622;47.726;3.298;2023-04-25T10:48:25;3.88;;;2.30;;
61702;SDS011;47622;47.726;3.298;2023-04-25T10:51:16;5.38;;;2.22;;
61702;SDS011;47622;47.726;3.298;2023-04-25T10:53:44;5.45;;;2.50;;
61702;SDS011;47622;47.726;3.298;2023-04-25T10:56:17;4.88;;;2.58;;
61702;SDS011;47622;47.726;3.298;2023-04-25T10:58:45;5.53;;;2.28;;
61702;SDS011;47622;47.726;3.298;2023-04-25T11:01:12;4.95;;;2.22;;
61702;SDS011;47622;47.726;3.298;2023-04-25T11:03:40;4.60;;;2.17;;
61702;SDS011;47622;47.726;3.298;2023-04-25T11:06:09;5.57;;;2.67;;
61702;SDS011;47622;47.726;3.298;2023-04-25T11:08:48;4.82;;;2.33;;
61702;SDS011;47622;47.726;3.298;2023-04-25T11:11:16;5.00;;;2.40;;
61702;SDS011;47622;47.726;3.298;2023-04-25T11:13:43;3.88;;;2.25;;
61702;SDS011;47622;47.726;3.298;2023-04-25T11:16:09;5.93;;;2.22;;
61702;SDS011;47622;47.726;3.298;2023-04-25T11:18:34;5.03;;;2.40;;
61702;SDS011;47622;47.726;3.298;2023-04-25T11:21:03;6.32;;;2.80;;
61702;SDS011;47622;47.726;3.298;2023-04-25T11:23:29;3.00;;;2.10;;
61702;SDS011;47622;47.726;3.298;2023-04-25T11:25:55;4.47;;;2.60;;
61702;SDS011;47622;47.726;3.298;2023-04-25T11:28:21;6.72;;;3.13;;
61702;SDS011;47622;47.726;3.298;2023-04-25T11:30:51;6.20;;;2.53;;
61702;SDS011;47622;47.726;3.298;2023-04-25T11:33:17;5.15;;;2.63;;
61702;SDS011;47622;47.726;3.298;2023-04-25T11:35:43;4.47;;;2.47;;
61702;SDS011;47622;47.726;3.298;2023-04-25T11:38:09;7.40;;;3.45;;
61702;SDS011;47622;47.726;3.298;2023-04-25T11:40:35;5.70;;;2.45;;
61702;SDS011;47622;47.726;3.298;2023-04-25T11:43:01;3.40;;;2.78;;
61702;SDS011;47622;47.726;3.298;2023-04-25T11:45:27;3.83;;;2.83;;
61702;SDS011;47622;47.726;3.298;2023-04-25T11:47:54;6.20;;;2.78;;
61702;SDS011;47622;47.726;3.298;2023-04-25T11:50:20;6.05;;;3.58;;
61702;SDS011;47622;47.726;3.298;2023-04-25T11:52:46;6.28;;;2.95;;
61702;SDS011;47622;47.726;3.298;2023-04-25T11:55:16;3.92;;;2.90;;
61702;SDS011;47622;47.726;3.298;2023-04-25T11:57:47;5.13;;;3.08;;
61702;SDS011;47622;47.726;3.298;2023-04-25T12:00:15;4.75;;;2.78;;
61702;SDS011;47622;47.726;3.298;2023-04-25T12:02:42;6.20;;;3.17;;
61702;SDS011;47622;47.726;3.298;2023-04-25T12:05:10;3.92;;;2.60;;
61702;SDS011;47622;47.726;3.298;2023-04-25T12:07:36;4.35;;;2.90;;
61702;SDS011;47622;47.726;3.298;2023-04-25T12:10:06;3.58;;;2.65;;
61702;SDS011;47622;47.726;3.298;2023-04-25T12:12:34;5.85;;;2.92;;
61702;SDS011;47622;47.726;3.298;2023-04-25T12:17:36;7.85;;;2.60;;
61702;SDS011;47622;47.726;3.298;2023-04-25T12:20:07;4.93;;;3.08;;
61702;SDS011;47622;47.726;3.298;2023-04-25T12:22:45;5.03;;;2.80;;
61702;SDS011;47622;47.726;3.298;2023-04-25T12:25:12;4.60;;;2.63;;
61702;SDS011;47622;47.726;3.298;2023-04-25T12:31:04;4.25;;;2.30;;
61702;SDS011;47622;47.726;3.298;2023-04-25T12:33:32;6.93;;;2.72;;
61702;SDS011;47622;47.726;3.298;2023-04-25T12:36:01;5.07;;;2.70;;
61702;SDS011;47622;47.726;3.298;2023-04-25T12:38:42;4.50;;;2.53;;
61702;SDS011;47622;47.726;3.298;2023-04-25T12:41:08;5.17;;;2.87;;
61702;SDS011;47622;47.726;3.298;2023-04-25T12:43:34;5.03;;;2.80;;
61702;SDS011;47622;47.726;3.298;2023-04-25T12:46:00;3.80;;;2.70;;
61702;SDS011;47622;47.726;3.298;2023-04-25T12:48:25;4.97;;;2.75;;
61702;SDS011;47622;47.726;3.298;2023-04-25T12:50:51;6.30;;;2.95;;
61702;SDS011;47622;47.726;3.298;2023-04-25T12:53:17;5.43;;;2.70;;
61702;SDS011;47622;47.726;3.298;2023-04-25T12:55:46;4.72;;;2.42;;
61702;SDS011;47622;47.726;3.298;2023-04-25T12:58:12;4.72;;;2.85;;
61702;SDS011;47622;47.726;3.298;2023-04-25T13:00:42;5.20;;;2.95;;
61702;SDS011;47622;47.726;3.298;2023-04-25T13:03:08;5.90;;;2.90;;
61702;SDS011;47622;47.726;3.298;2023-04-25T13:05:34;7.15;;;3.10;;
61702;SDS011;47622;47.726;3.298;2023-04-25T13:08:01;8.18;;;3.03;;
61702;SDS011;47622;47.726;3.298;2023-04-25T13:10:26;6.70;;;3.03;;
61702;SDS011;47622;47.726;3.298;2023-04-25T13:12:52;4.32;;;2.22;;
61702;SDS011;47622;47.726;3.298;2023-04-25T13:15:17;3.15;;;2.42;;
61702;SDS011;47622;47.726;3.298;2023-04-25T13:17:43;3.22;;;2.40;;
61702;SDS011;47622;47.726;3.298;2023-04-25T13:20:09;5.13;;;2.65;;
61702;SDS011;47622;47.726;3.298;2023-04-25T13:22:35;6.75;;;3.40;;
61702;SDS011;47622;47.726;3.298;2023-04-25T13:25:03;7.55;;;3.33;;
61702;SDS011;47622;47.726;3.298;2023-04-25T13:27:29;5.68;;;2.63;;
61702;SDS011;47622;47.726;3.298;2023-04-25T13:29:55;4.72;;;2.80;;
61702;SDS011;47622;47.726;3.298;2023-04-25T13:32:21;6.18;;;2.70;;
61702;SDS011;47622;47.726;3.298;2023-04-25T13:34:46;4.13;;;2.40;;
61702;SDS011;47622;47.726;3.298;2023-04-25T13:37:12;5.78;;;2.50;;
61702;SDS011;47622;47.726;3.298;2023-04-25T13:39:38;3.97;;;2.55;;
61702;SDS011;47622;47.726;3.298;2023-04-25T13:42:03;5.00;;;2.60;;
61702;SDS011;47622;47.726;3.298;2023-04-25T13:44:29;5.82;;;2.53;;
61702;SDS011;47622;47.726;3.298;2023-04-25T13:46:56;5.00;;;2.80;;
61702;SDS011;47622;47.726;3.298;2023-04-25T13:49:21;7.40;;;2.95;;
61702;SDS011;47622;47.726;3.298;2023-04-25T13:51:48;5.93;;;2.50;;
61702;SDS011;47622;47.726;3.298;2023-04-25T13:54:13;4.45;;;2.85;;
61702;SDS011;47622;47.726;3.298;2023-04-25T13:56:39;7.22;;;2.65;;
61702;SDS011;47622;47.726;3.298;2023-04-25T13:59:07;5.72;;;2.78;;
61702;SDS011;47622;47.726;3.298;2023-04-25T14:01:32;6.65;;;2.83;;
61702;SDS011;47622;47.726;3.298;2023-04-25T14:04:00;4.93;;;2.80;;
61702;SDS011;47622;47.726;3.298;2023-04-25T14:06:26;4.13;;;2.70;;
61702;SDS011;47622;47.726;3.298;2023-04-25T14:08:53;4.28;;;2.75;;
61702;SDS011;47622;47.726;3.298;2023-04-25T14:11:19;4.25;;;2.90;;
61702;SDS011;47622;47.726;3.298;2023-04-25T14:13:45;4.80;;;3.25;;
61702;SDS011;47622;47.726;3.298;2023-04-25T14:16:11;7.43;;;3.47;;
61702;SDS011;47622;47.726;3.298;2023-04-25T14:18:37;7.85;;;4.15;;
61702;SDS011;47622;47.726;3.298;2023-04-25T14:21:02;5.47;;;3.85;;
61702;SDS011;47622;47.726;3.298;2023-04-25T14:23:28;8.65;;;3.80;;
61702;SDS011;47622;47.726;3.298;2023-04-25T14:25:53;4.35;;;3.40;;
61702;SDS011;47622;47.726;3.298;2023-04-25T14:28:19;9.02;;;4.15;;
61702;SDS011;47622;47.726;3.298;2023-04-25T14:30:46;6.35;;;3.55;;
61702;SDS011;47622;47.726;3.298;2023-04-25T14:33:12;4.78;;;3.55;;
61702;SDS011;47622;47.726;3.298;2023-04-25T14:35:39;5.35;;;3.22;;
61702;SDS011;47622;47.726;3.298;2023-04-25T14:38:05;6.20;;;2.95;;
61702;SDS011;47622;47.726;3.298;2023-04-25T14:40:30;7.35;;;3.55;;
61702;SDS011;47622;47.726;3.298;2023-04-25T14:42:56;6.30;;;3.40;;
61702;SDS011;47622;47.726;3.298;2023-04-25T14:45:22;4.60;;;2.95;;
61702;SDS011;47622;47.726;3.298;2023-04-25T14:47:47;4.32;;;2.80;;
61702;SDS011;47622;47.726;3.298;2023-04-25T14:50:13;4.85;;;3.25;;
61702;SDS011;47622;47.726;3.298;2023-04-25T14:52:39;4.00;;;2.88;;
61702;SDS011;47622;47.726;3.298;2023-04-25T14:55:05;6.00;;;3.05;;